sensor_id;sensor_type;location;lat;lon;timestamp;P1;durP1;ratioP1;P2;durP2;ratioP2
76593;SDS011;65482;50.240;14.302;2023-12-28T00:02:16;51.78;;;24.10;;
76593;SDS011;65482;50.240;14.302;2023-12-28T00:04:41;51.63;;;23.73;;
76593;SDS011;65482;50.240;14.302;2023-12-28T00:07:07;53.30;;;23.02;;
76593;SDS011;65482;50.240;14.302;2023-12-28T00:09:33;48.78;;;22.80;;
76593;SDS011;65482;50.240;14.302;2023-12-28T00:11:58;47.28;;;21.08;;
76593;SDS011;65482;50.240;14.302;2023-12-28T00:14:24;51.78;;;22.90;;
76593;SDS011;65482;50.240;14.302;2023-12-28T00:16:49;49.90;;;22.10;;
76593;SDS011;65482;50.240;14.302;2023-12-28T00:19:15;50.60;;;22.02;;
76593;SDS011;65482;50.240;14.302;2023-12-28T00:21:41;52.53;;;21.90;;
76593;SDS011;65482;50.240;14.302;2023-12-28T00:24:06;44.40;;;21.58;;
76593;SDS011;65482;50.240;14.302;2023-12-28T00:26:32;53.70;;;21.58;;
76593;SDS011;65482;50.240;14.302;2023-12-28T00:28:58;50.60;;;21.02;;
76593;SDS011;65482;50.240;14.302;2023-12-28T00:31:23;43.67;;;20.70;;
76593;SDS011;65482;50.240;14.302;2023-12-28T00:33:49;49.00;;;21.35;;
76593;SDS011;65482;50.240;14.302;2023-12-28T00:36:15;50.25;;;20.33;;
76593;SDS011;65482;50.240;14.302;2023-12-28T00:38:41;49.95;;;21.75;;
76593;SDS011;65482;50.240;14.302;2023-12-28T00:41:07;48.50;;;21.17;;
76593;SDS011;65482;50.240;14.302;2023-12-28T00:43:33;46.85;;;21.90;;
76593;SDS011;65482;50.240;14.302;2023-12-28T00:45:59;49.50;;;20.67;;
76593;SDS011;65482;50.240;14.302;2023-12-28T00:48:24;54.15;;;20.77;;
76593;SDS011;65482;50.240;14.302;2023-12-28T00:50:50;47.40;;;20.77;;
76593;SDS011;65482;50.240;14.302;2023-12-28T00:53:16;54.97;;;22.40;;
76593;SDS011;65482;50.240;14.302;2023-12-28T00:55:41;46.50;;;20.45;;
76593;SDS011;65482;50.240;14.302;2023-12-28T00:58:07;47.65;;;20.75;;
76593;SDS011;65482;50.240;14.302;2023-12-28T01:00:32;45.92;;;20.65;;
76593;SDS011;65482;50.240;14.302;2023-12-28T01:02:58;46.45;;;20.05;;
76593;SDS011;65482;50.240;14.302;2023-12-28T01:05:23;50.90;;;20.42;;
76593;SDS011;65482;50.240;14.302;2023-12-28T01:07:51;43.15;;;18.83;;
76593;SDS011;65482;50.240;14.302;2023-12-28T01:10:17;47.72;;;20.60;;
76593;SDS011;65482;50.240;14.302;2023-12-28T01:12:42;48.28;;;19.67;;
76593;SDS011;65482;50.240;14.302;2023-12-28T01:15:08;40.08;;;18.92;;
76593;SDS011;65482;50.240;14.302;2023-12-28T01:17:34;50.47;;;20.85;;
76593;SDS011;65482;50.240;14.302;2023-12-28T01:19:59;43.30;;;18.83;;
76593;SDS011;65482;50.240;14.302;2023-12-28T01:22:25;46.63;;;20.67;;
76593;SDS011;65482;50.240;14.302;2023-12-28T01:24:50;48.88;;;21.40;;
76593;SDS011;65482;50.240;14.302;2023-12-28T01:27:16;51.17;;;20.60;;
76593;SDS011;65482;50.240;14.302;2023-12-28T01:29:41;49.60;;;21.08;;
76593;SDS011;65482;50.240;14.302;2023-12-28T01:32:07;52.88;;;21.80;;
76593;SDS011;65482;50.240;14.302;2023-12-28T01:34:33;52.97;;;22.00;;
76593;SDS011;65482;50.240;14.302;2023-12-28T01:36:58;58.58;;;21.52;;
76593;SDS011;65482;50.240;14.302;2023-12-28T01:39:24;48.75;;;20.25;;
76593;SDS011;65482;50.240;14.302;2023-12-28T01:41:49;45.47;;;19.83;;
76593;SDS011;65482;50.240;14.302;2023-12-28T01:44:15;48.70;;;22.02;;
76593;SDS011;65482;50.240;14.302;2023-12-28T01:46:41;48.20;;;20.85;;
76593;SDS011;65482;50.240;14.302;2023-12-28T01:49:06;57.40;;;21.00;;
76593;SDS011;65482;50.240;14.302;2023-12-28T01:51:33;50.15;;;20.50;;
76593;SDS011;65482;50.240;14.302;2023-12-28T01:53:59;44.90;;;20.48;;
76593;SDS011;65482;50.240;14.302;2023-12-28T01:56:25;50.08;;;20.77;;
76593;SDS011;65482;50.240;14.302;2023-12-28T01:58:51;47.90;;;20.20;;
76593;SDS011;65482;50.240;14.302;2023-12-28T02:01:19;45.35;;;20.52;;
76593;SDS011;65482;50.240;14.302;2023-12-28T02:03:45;48.97;;;20.20;;
76593;SDS011;65482;50.240;14.302;2023-12-28T02:06:11;48.03;;;20.67;;
76593;SDS011;65482;50.240;14.302;2023-12-28T02:08:41;48.97;;;19.70;;
76593;SDS011;65482;50.240;14.302;2023-12-28T02:11:07;48.45;;;19.83;;
76593;SDS011;65482;50.240;14.302;2023-12-28T02:13:32;46.67;;;20.83;;
76593;SDS011;65482;50.240;14.302;2023-12-28T02:16:00;54.08;;;20.30;;
76593;SDS011;65482;50.240;14.302;2023-12-28T02:18:34;43.45;;;18.50;;
76593;SDS011;65482;50.240;14.302;2023-12-28T02:21:07;46.28;;;19.52;;
76593;SDS011;65482;50.240;14.302;2023-12-28T02:23:33;44.00;;;19.20;;
76593;SDS011;65482;50.240;14.302;2023-12-28T02:25:59;40.40;;;18.10;;
76593;SDS011;65482;50.240;14.302;2023-12-28T02:28:24;39.30;;;17.98;;
76593;SDS011;65482;50.240;14.302;2023-12-28T02:30:50;36.53;;;16.85;;
76593;SDS011;65482;50.240;14.302;2023-12-28T02:33:19;31.90;;;14.73;;
76593;SDS011;65482;50.240;14.302;2023-12-28T02:35:55;40.35;;;16.17;;
76593;SDS011;65482;50.240;14.302;2023-12-28T02:38:24;35.17;;;14.02;;
76593;SDS011;65482;50.240;14.302;2023-12-28T02:40:50;36.70;;;17.13;;
76593;SDS011;65482;50.240;14.302;2023-12-28T02:43:16;34.00;;;15.80;;
76593;SDS011;65482;50.240;14.302;2023-12-28T02:45:42;37.15;;;15.40;;
76593;SDS011;65482;50.240;14.302;2023-12-28T02:48:07;36.70;;;15.27;;
76593;SDS011;65482;50.240;14.302;2023-12-28T02:50:34;34.83;;;16.13;;
76593;SDS011;65482;50.240;14.302;2023-12-28T02:53:00;32.55;;;15.65;;
76593;SDS011;65482;50.240;14.302;2023-12-28T02:55:26;36.90;;;15.95;;
76593;SDS011;65482;50.240;14.302;2023-12-28T02:57:52;39.25;;;15.73;;
76593;SDS011;65482;50.240;14.302;2023-12-28T03:02:51;32.10;;;14.10;;
76593;SDS011;65482;50.240;14.302;2023-12-28T03:05:17;36.28;;;15.32;;
76593;SDS011;65482;50.240;14.302;2023-12-28T03:07:43;33.08;;;15.45;;
76593;SDS011;65482;50.240;14.302;2023-12-28T03:10:09;37.53;;;14.52;;
76593;SDS011;65482;50.240;14.302;2023-12-28T03:12:36;33.42;;;15.85;;
76593;SDS011;65482;50.240;14.302;2023-12-28T03:15:03;39.88;;;16.98;;
76593;SDS011;65482;50.240;14.302;2023-12-28T03:17:29;41.13;;;16.38;;
76593;SDS011;65482;50.240;14.302;2023-12-28T03:19:56;33.95;;;15.65;;
76593;SDS011;65482;50.240;14.302;2023-12-28T03:22:23;37.35;;;16.08;;
76593;SDS011;65482;50.240;14.302;2023-12-28T03:24:49;42.17;;;16.75;;
76593;SDS011;65482;50.240;14.302;2023-12-28T03:27:14;32.58;;;15.60;;
76593;SDS011;65482;50.240;14.302;2023-12-28T03:29:40;35.63;;;15.68;;
76593;SDS011;65482;50.240;14.302;2023-12-28T03:32:07;38.90;;;16.23;;
76593;SDS011;65482;50.240;14.302;2023-12-28T03:34:33;37.08;;;17.90;;
76593;SDS011;65482;50.240;14.302;2023-12-28T03:36:59;36.50;;;17.00;;
76593;SDS011;65482;50.240;14.302;2023-12-28T03:39:25;40.00;;;16.92;;
76593;SDS011;65482;50.240;14.302;2023-12-28T03:41:50;38.28;;;18.63;;
76593;SDS011;65482;50.240;14.302;2023-12-28T03:44:18;49.78;;;18.02;;
76593;SDS011;65482;50.240;14.302;2023-12-28T03:46:47;40.33;;;17.30;;
76593;SDS011;65482;50.240;14.302;2023-12-28T03:49:17;36.70;;;16.45;;
76593;SDS011;65482;50.240;14.302;2023-12-28T03:51:43;42.50;;;17.15;;
76593;SDS011;65482;50.240;14.302;2023-12-28T03:54:09;34.00;;;16.25;;
76593;SDS011;65482;50.240;14.302;2023-12-28T03:56:35;38.67;;;16.27;;
76593;SDS011;65482;50.240;14.302;2023-12-28T03:59:02;39.92;;;16.85;;
76593;SDS011;65482;50.240;14.302;2023-12-28T04:01:27;40.88;;;16.42;;
76593;SDS011;65482;50.240;14.302;2023-12-28T04:03:53;34.75;;;15.32;;
76593;SDS011;65482;50.240;14.302;2023-12-28T04:06:19;38.00;;;17.23;;
76593;SDS011;65482;50.240;14.302;2023-12-28T04:08:45;36.03;;;15.73;;
76593;SDS011;65482;50.240;14.302;2023-12-28T04:11:10;36.92;;;16.67;;
76593;SDS011;65482;50.240;14.302;2023-12-28T04:13:36;42.25;;;16.58;;
76593;SDS011;65482;50.240;14.302;2023-12-28T04:16:02;36.75;;;16.00;;
76593;SDS011;65482;50.240;14.302;2023-12-28T04:18:28;37.40;;;16.75;;
76593;SDS011;65482;50.240;14.302;2023-12-28T04:20:54;38.03;;;16.73;;
76593;SDS011;65482;50.240;14.302;2023-12-28T04:23:19;35.65;;;16.35;;
76593;SDS011;65482;50.240;14.302;2023-12-28T04:25:45;35.10;;;15.43;;
76593;SDS011;65482;50.240;14.302;2023-12-28T04:28:11;40.45;;;16.52;;
76593;SDS011;65482;50.240;14.302;2023-12-28T04:30:36;35.22;;;14.52;;
76593;SDS011;65482;50.240;14.302;2023-12-28T04:33:02;36.72;;;16.48;;
76593;SDS011;65482;50.240;14.302;2023-12-28T04:35:28;31.90;;;14.88;;
76593;SDS011;65482;50.240;14.302;2023-12-28T04:37:54;34.28;;;14.80;;
76593;SDS011;65482;50.240;14.302;2023-12-28T04:40:21;42.38;;;16.65;;
76593;SDS011;65482;50.240;14.302;2023-12-28T04:42:47;36.50;;;15.90;;
76593;SDS011;65482;50.240;14.302;2023-12-28T04:45:12;69.70;;;29.63;;
76593;SDS011;65482;50.240;14.302;2023-12-28T04:47:38;38.50;;;17.63;;
76593;SDS011;65482;50.240;14.302;2023-12-28T04:50:04;50.35;;;20.55;;
76593;SDS011;65482;50.240;14.302;2023-12-28T04:52:31;41.55;;;18.42;;
76593;SDS011;65482;50.240;14.302;2023-12-28T04:54:56;43.67;;;20.02;;
76593;SDS011;65482;50.240;14.302;2023-12-28T04:57:22;45.30;;;19.15;;
76593;SDS011;65482;50.240;14.302;2023-12-28T04:59:53;36.85;;;18.52;;
76593;SDS011;65482;50.240;14.302;2023-12-28T05:02:19;41.47;;;18.23;;
76593;SDS011;65482;50.240;14.302;2023-12-28T05:04:45;41.33;;;18.73;;
76593;SDS011;65482;50.240;14.302;2023-12-28T05:07:10;45.53;;;18.10;;
76593;SDS011;65482;50.240;14.302;2023-12-28T05:09:36;39.63;;;17.27;;
76593;SDS011;65482;50.240;14.302;2023-12-28T05:12:02;43.75;;;18.35;;
76593;SDS011;65482;50.240;14.302;2023-12-28T05:14:28;34.85;;;17.65;;
76593;SDS011;65482;50.240;14.302;2023-12-28T05:16:53;41.55;;;19.92;;
76593;SDS011;65482;50.240;14.302;2023-12-28T05:19:19;37.50;;;18.55;;
76593;SDS011;65482;50.240;14.302;2023-12-28T05:21:45;41.50;;;19.20;;
76593;SDS011;65482;50.240;14.302;2023-12-28T05:24:11;36.88;;;17.58;;
76593;SDS011;65482;50.240;14.302;2023-12-28T05:26:37;41.25;;;18.42;;
76593;SDS011;65482;50.240;14.302;2023-12-28T05:29:02;37.92;;;16.85;;
76593;SDS011;65482;50.240;14.302;2023-12-28T05:31:28;40.33;;;18.30;;
76593;SDS011;65482;50.240;14.302;2023-12-28T05:33:54;37.33;;;17.02;;
76593;SDS011;65482;50.240;14.302;2023-12-28T05:36:20;37.28;;;17.35;;
76593;SDS011;65482;50.240;14.302;2023-12-28T05:38:45;33.38;;;16.30;;
76593;SDS011;65482;50.240;14.302;2023-12-28T05:41:11;38.55;;;16.13;;
76593;SDS011;65482;50.240;14.302;2023-12-28T05:43:39;38.30;;;16.83;;
76593;SDS011;65482;50.240;14.302;2023-12-28T05:46:05;35.95;;;16.63;;
76593;SDS011;65482;50.240;14.302;2023-12-28T05:48:30;35.70;;;15.55;;
76593;SDS011;65482;50.240;14.302;2023-12-28T05:50:57;35.78;;;15.45;;
76593;SDS011;65482;50.240;14.302;2023-12-28T05:53:23;33.30;;;15.55;;
76593;SDS011;65482;50.240;14.302;2023-12-28T05:55:49;34.33;;;15.75;;
76593;SDS011;65482;50.240;14.302;2023-12-28T05:58:15;35.38;;;16.67;;
76593;SDS011;65482;50.240;14.302;2023-12-28T06:00:41;41.78;;;16.70;;
76593;SDS011;65482;50.240;14.302;2023-12-28T06:03:07;37.90;;;16.83;;
76593;SDS011;65482;50.240;14.302;2023-12-28T06:05:34;36.08;;;16.83;;
76593;SDS011;65482;50.240;14.302;2023-12-28T06:07:59;33.28;;;15.20;;
76593;SDS011;65482;50.240;14.302;2023-12-28T06:10:25;34.17;;;15.98;;
76593;SDS011;65482;50.240;14.302;2023-12-28T06:12:50;32.60;;;15.90;;
76593;SDS011;65482;50.240;14.302;2023-12-28T06:15:16;36.60;;;17.02;;
76593;SDS011;65482;50.240;14.302;2023-12-28T06:17:41;44.40;;;18.65;;
76593;SDS011;65482;50.240;14.302;2023-12-28T06:20:08;36.75;;;16.48;;
76593;SDS011;65482;50.240;14.302;2023-12-28T06:22:37;36.45;;;17.85;;
76593;SDS011;65482;50.240;14.302;2023-12-28T06:25:03;39.50;;;18.23;;
76593;SDS011;65482;50.240;14.302;2023-12-28T06:27:29;36.95;;;17.15;;
76593;SDS011;65482;50.240;14.302;2023-12-28T06:29:56;34.33;;;17.38;;
76593;SDS011;65482;50.240;14.302;2023-12-28T06:32:21;54.33;;;19.73;;
76593;SDS011;65482;50.240;14.302;2023-12-28T06:34:47;52.05;;;20.92;;
76593;SDS011;65482;50.240;14.302;2023-12-28T06:37:13;40.58;;;18.15;;
76593;SDS011;65482;50.240;14.302;2023-12-28T06:39:39;48.55;;;18.77;;
76593;SDS011;65482;50.240;14.302;2023-12-28T06:42:06;39.45;;;18.10;;
76593;SDS011;65482;50.240;14.302;2023-12-28T06:44:31;40.65;;;17.10;;
76593;SDS011;65482;50.240;14.302;2023-12-28T06:46:57;34.17;;;16.13;;
76593;SDS011;65482;50.240;14.302;2023-12-28T06:49:23;40.38;;;17.10;;
76593;SDS011;65482;50.240;14.302;2023-12-28T06:51:49;36.22;;;16.75;;
76593;SDS011;65482;50.240;14.302;2023-12-28T06:54:15;32.15;;;15.05;;
76593;SDS011;65482;50.240;14.302;2023-12-28T06:56:41;40.25;;;16.85;;
76593;SDS011;65482;50.240;14.302;2023-12-28T06:59:07;37.00;;;16.88;;
76593;SDS011;65482;50.240;14.302;2023-12-28T07:01:37;32.58;;;15.52;;
76593;SDS011;65482;50.240;14.302;2023-12-28T07:04:03;36.20;;;14.80;;
76593;SDS011;65482;50.240;14.302;2023-12-28T07:06:28;36.05;;;15.45;;
76593;SDS011;65482;50.240;14.302;2023-12-28T07:08:54;34.17;;;15.38;;
76593;SDS011;65482;50.240;14.302;2023-12-28T07:11:19;33.35;;;15.52;;
76593;SDS011;65482;50.240;14.302;2023-12-28T07:13:45;31.25;;;14.15;;
76593;SDS011;65482;50.240;14.302;2023-12-28T07:16:12;32.33;;;14.25;;
76593;SDS011;65482;50.240;14.302;2023-12-28T07:18:38;36.40;;;15.05;;
76593;SDS011;65482;50.240;14.302;2023-12-28T07:21:03;32.65;;;15.25;;
76593;SDS011;65482;50.240;14.302;2023-12-28T07:23:31;30.33;;;14.20;;
76593;SDS011;65482;50.240;14.302;2023-12-28T07:25:57;27.88;;;13.80;;
76593;SDS011;65482;50.240;14.302;2023-12-28T07:28:23;28.58;;;13.55;;
76593;SDS011;65482;50.240;14.302;2023-12-28T07:30:49;32.97;;;13.85;;
76593;SDS011;65482;50.240;14.302;2023-12-28T07:33:15;32.72;;;14.90;;
76593;SDS011;65482;50.240;14.302;2023-12-28T07:35:40;38.78;;;16.98;;
76593;SDS011;65482;50.240;14.302;2023-12-28T07:38:06;41.15;;;16.90;;
76593;SDS011;65482;50.240;14.302;2023-12-28T07:40:32;45.83;;;19.77;;
76593;SDS011;65482;50.240;14.302;2023-12-28T07:42:59;43.30;;;19.17;;
76593;SDS011;65482;50.240;14.302;2023-12-28T07:45:26;38.63;;;17.90;;
76593;SDS011;65482;50.240;14.302;2023-12-28T07:47:52;31.20;;;15.52;;
76593;SDS011;65482;50.240;14.302;2023-12-28T07:50:17;35.08;;;14.68;;
76593;SDS011;65482;50.240;14.302;2023-12-28T07:52:44;35.35;;;15.10;;
76593;SDS011;65482;50.240;14.302;2023-12-28T07:55:11;36.05;;;16.92;;
76593;SDS011;65482;50.240;14.302;2023-12-28T07:57:37;37.20;;;16.98;;
76593;SDS011;65482;50.240;14.302;2023-12-28T08:00:02;42.22;;;17.25;;
76593;SDS011;65482;50.240;14.302;2023-12-28T08:02:29;45.92;;;18.95;;
76593;SDS011;65482;50.240;14.302;2023-12-28T08:04:54;53.92;;;21.95;;
76593;SDS011;65482;50.240;14.302;2023-12-28T08:07:20;58.70;;;24.33;;
76593;SDS011;65482;50.240;14.302;2023-12-28T08:09:45;55.92;;;23.50;;
76593;SDS011;65482;50.240;14.302;2023-12-28T08:12:11;45.38;;;21.35;;
76593;SDS011;65482;50.240;14.302;2023-12-28T08:14:36;50.75;;;21.33;;
76593;SDS011;65482;50.240;14.302;2023-12-28T08:17:02;56.33;;;24.52;;
76593;SDS011;65482;50.240;14.302;2023-12-28T08:19:28;42.63;;;18.42;;
76593;SDS011;65482;50.240;14.302;2023-12-28T08:21:54;50.42;;;22.27;;
76593;SDS011;65482;50.240;14.302;2023-12-28T08:24:19;39.45;;;18.58;;
76593;SDS011;65482;50.240;14.302;2023-12-28T08:26:45;37.97;;;17.58;;
76593;SDS011;65482;50.240;14.302;2023-12-28T08:29:10;47.58;;;20.27;;
76593;SDS011;65482;50.240;14.302;2023-12-28T08:31:36;52.13;;;22.50;;
76593;SDS011;65482;50.240;14.302;2023-12-28T08:34:02;41.47;;;20.00;;
76593;SDS011;65482;50.240;14.302;2023-12-28T08:36:28;46.60;;;21.85;;
76593;SDS011;65482;50.240;14.302;2023-12-28T08:38:54;45.72;;;19.27;;
76593;SDS011;65482;50.240;14.302;2023-12-28T08:41:20;45.15;;;22.10;;
76593;SDS011;65482;50.240;14.302;2023-12-28T08:43:49;40.83;;;18.67;;
76593;SDS011;65482;50.240;14.302;2023-12-28T08:46:15;41.20;;;19.55;;
76593;SDS011;65482;50.240;14.302;2023-12-28T08:48:41;45.40;;;21.45;;
76593;SDS011;65482;50.240;14.302;2023-12-28T08:51:09;50.55;;;24.15;;
76593;SDS011;65482;50.240;14.302;2023-12-28T08:53:35;54.53;;;23.50;;
76593;SDS011;65482;50.240;14.302;2023-12-28T08:56:01;43.78;;;21.08;;
76593;SDS011;65482;50.240;14.302;2023-12-28T08:58:27;32.08;;;15.70;;
76593;SDS011;65482;50.240;14.302;2023-12-28T09:00:53;23.60;;;13.05;;
76593;SDS011;65482;50.240;14.302;2023-12-28T09:03:18;19.63;;;9.93;;
76593;SDS011;65482;50.240;14.302;2023-12-28T09:05:44;14.32;;;8.38;;
76593;SDS011;65482;50.240;14.302;2023-12-28T09:08:11;11.95;;;6.20;;
76593;SDS011;65482;50.240;14.302;2023-12-28T09:10:37;9.27;;;5.28;;
76593;SDS011;65482;50.240;14.302;2023-12-28T09:13:04;13.23;;;5.05;;
76593;SDS011;65482;50.240;14.302;2023-12-28T09:15:31;6.72;;;4.00;;
76593;SDS011;65482;50.240;14.302;2023-12-28T09:17:56;8.88;;;4.68;;
76593;SDS011;65482;50.240;14.302;2023-12-28T09:20:22;6.60;;;3.58;;
76593;SDS011;65482;50.240;14.302;2023-12-28T09:22:47;7.13;;;3.67;;
76593;SDS011;65482;50.240;14.302;2023-12-28T09:25:18;6.70;;;3.45;;
76593;SDS011;65482;50.240;14.302;2023-12-28T09:27:44;9.15;;;3.25;;
76593;SDS011;65482;50.240;14.302;2023-12-28T09:30:12;6.38;;;3.05;;
76593;SDS011;65482;50.240;14.302;2023-12-28T09:32:38;5.32;;;2.72;;
76593;SDS011;65482;50.240;14.302;2023-12-28T09:35:04;5.55;;;3.03;;
76593;SDS011;65482;50.240;14.302;2023-12-28T09:37:30;4.00;;;2.47;;
76593;SDS011;65482;50.240;14.302;2023-12-28T09:39:55;18.40;;;3.08;;
76593;SDS011;65482;50.240;14.302;2023-12-28T09:42:25;7.43;;;3.10;;
76593;SDS011;65482;50.240;14.302;2023-12-28T09:44:54;7.35;;;3.42;;
76593;SDS011;65482;50.240;14.302;2023-12-28T09:47:20;10.63;;;3.33;;
76593;SDS011;65482;50.240;14.302;2023-12-28T09:49:45;6.10;;;3.10;;
76593;SDS011;65482;50.240;14.302;2023-12-28T09:52:12;4.05;;;2.88;;
76593;SDS011;65482;50.240;14.302;2023-12-28T09:54:38;16.20;;;3.00;;
76593;SDS011;65482;50.240;14.302;2023-12-28T09:57:03;5.22;;;2.80;;
76593;SDS011;65482;50.240;14.302;2023-12-28T09:59:30;4.18;;;2.60;;
76593;SDS011;65482;50.240;14.302;2023-12-28T10:01:57;9.05;;;2.35;;
76593;SDS011;65482;50.240;14.302;2023-12-28T10:04:26;3.60;;;2.13;;
76593;SDS011;65482;50.240;14.302;2023-12-28T10:06:54;18.23;;;3.38;;
76593;SDS011;65482;50.240;14.302;2023-12-28T10:09:21;4.72;;;2.40;;
76593;SDS011;65482;50.240;14.302;2023-12-28T10:11:47;7.35;;;3.15;;
76593;SDS011;65482;50.240;14.302;2023-12-28T10:14:13;5.57;;;2.65;;
76593;SDS011;65482;50.240;14.302;2023-12-28T10:16:42;6.40;;;2.70;;
76593;SDS011;65482;50.240;14.302;2023-12-28T10:19:08;3.92;;;2.45;;
76593;SDS011;65482;50.240;14.302;2023-12-28T10:21:33;4.65;;;2.20;;
76593;SDS011;65482;50.240;14.302;2023-12-28T10:23:59;4.75;;;2.60;;
76593;SDS011;65482;50.240;14.302;2023-12-28T10:26:27;4.70;;;2.72;;
76593;SDS011;65482;50.240;14.302;2023-12-28T10:29:00;3.53;;;2.50;;
76593;SDS011;65482;50.240;14.302;2023-12-28T10:31:28;5.05;;;2.40;;
76593;SDS011;65482;50.240;14.302;2023-12-28T10:33:57;4.30;;;2.35;;
76593;SDS011;65482;50.240;14.302;2023-12-28T10:36:24;5.57;;;2.53;;
76593;SDS011;65482;50.240;14.302;2023-12-28T10:38:52;22.20;;;2.90;;
76593;SDS011;65482;50.240;14.302;2023-12-28T10:41:19;5.38;;;2.47;;
76593;SDS011;65482;50.240;14.302;2023-12-28T10:43:46;7.72;;;3.15;;
76593;SDS011;65482;50.240;14.302;2023-12-28T10:46:22;7.57;;;2.85;;
76593;SDS011;65482;50.240;14.302;2023-12-28T10:48:57;12.68;;;3.10;;
76593;SDS011;65482;50.240;14.302;2023-12-28T10:51:27;14.00;;;3.30;;
76593;SDS011;65482;50.240;14.302;2023-12-28T10:59:24;7.47;;;3.30;;
76593;SDS011;65482;50.240;14.302;2023-12-28T11:02:03;4.63;;;2.50;;
76593;SDS011;65482;50.240;14.302;2023-12-28T11:07:10;4.13;;;2.20;;
76593;SDS011;65482;50.240;14.302;2023-12-28T11:09:40;6.20;;;3.00;;
76593;SDS011;65482;50.240;14.302;2023-12-28T11:12:07;12.55;;;3.15;;
76593;SDS011;65482;50.240;14.302;2023-12-28T11:14:34;4.80;;;2.40;;
76593;SDS011;65482;50.240;14.302;2023-12-28T11:17:00;3.65;;;2.20;;
76593;SDS011;65482;50.240;14.302;2023-12-28T11:19:27;3.58;;;2.10;;
76593;SDS011;65482;50.240;14.302;2023-12-28T11:21:55;3.88;;;2.63;;
76593;SDS011;65482;50.240;14.302;2023-12-28T11:24:22;5.90;;;2.80;;
76593;SDS011;65482;50.240;14.302;2023-12-28T11:26:52;5.55;;;2.63;;
76593;SDS011;65482;50.240;14.302;2023-12-28T11:29:20;4.35;;;2.17;;
76593;SDS011;65482;50.240;14.302;2023-12-28T11:31:52;14.35;;;3.78;;
76593;SDS011;65482;50.240;14.302;2023-12-28T11:34:19;5.13;;;2.70;;
76593;SDS011;65482;50.240;14.302;2023-12-28T11:36:51;6.15;;;2.72;;
76593;SDS011;65482;50.240;14.302;2023-12-28T11:39:28;6.90;;;3.50;;
76593;SDS011;65482;50.240;14.302;2023-12-28T11:41:59;9.02;;;2.80;;
76593;SDS011;65482;50.240;14.302;2023-12-28T11:44:39;9.13;;;3.15;;
76593;SDS011;65482;50.240;14.302;2023-12-28T11:47:15;4.03;;;2.40;;
76593;SDS011;65482;50.240;14.302;2023-12-28T11:49:42;3.97;;;2.45;;
76593;SDS011;65482;50.240;14.302;2023-12-28T11:52:22;4.88;;;2.65;;
76593;SDS011;65482;50.240;14.302;2023-12-28T11:54:52;4.35;;;2.42;;
76593;SDS011;65482;50.240;14.302;2023-12-28T11:57:18;3.45;;;2.08;;
76593;SDS011;65482;50.240;14.302;2023-12-28T11:59:44;5.47;;;2.42;;
76593;SDS011;65482;50.240;14.302;2023-12-28T12:02:12;5.60;;;2.42;;
76593;SDS011;65482;50.240;14.302;2023-12-28T12:04:39;4.28;;;2.10;;
76593;SDS011;65482;50.240;14.302;2023-12-28T12:07:05;3.58;;;2.10;;
76593;SDS011;65482;50.240;14.302;2023-12-28T12:09:31;5.50;;;2.10;;
76593;SDS011;65482;50.240;14.302;2023-12-28T12:12:00;4.07;;;2.20;;
76593;SDS011;65482;50.240;14.302;2023-12-28T12:14:27;3.72;;;2.30;;
76593;SDS011;65482;50.240;14.302;2023-12-28T12:16:54;6.93;;;2.38;;
76593;SDS011;65482;50.240;14.302;2023-12-28T12:19:25;5.20;;;2.38;;
76593;SDS011;65482;50.240;14.302;2023-12-28T12:21:54;3.33;;;2.17;;
76593;SDS011;65482;50.240;14.302;2023-12-28T12:24:21;13.57;;;2.38;;
76593;SDS011;65482;50.240;14.302;2023-12-28T12:26:49;7.10;;;2.92;;
76593;SDS011;65482;50.240;14.302;2023-12-28T12:29:15;4.78;;;2.85;;
76593;SDS011;65482;50.240;14.302;2023-12-28T12:31:41;5.05;;;2.38;;
76593;SDS011;65482;50.240;14.302;2023-12-28T12:34:08;3.92;;;2.30;;
76593;SDS011;65482;50.240;14.302;2023-12-28T12:36:35;3.35;;;2.08;;
76593;SDS011;65482;50.240;14.302;2023-12-28T12:39:01;5.53;;;2.10;;
76593;SDS011;65482;50.240;14.302;2023-12-28T12:41:27;4.55;;;2.38;;
76593;SDS011;65482;50.240;14.302;2023-12-28T12:43:53;8.07;;;2.60;;
76593;SDS011;65482;50.240;14.302;2023-12-28T12:46:22;6.30;;;2.40;;
76593;SDS011;65482;50.240;14.302;2023-12-28T12:48:55;5.85;;;2.58;;
76593;SDS011;65482;50.240;14.302;2023-12-28T12:51:24;3.67;;;2.17;;
76593;SDS011;65482;50.240;14.302;2023-12-28T12:53:55;18.33;;;3.25;;
76593;SDS011;65482;50.240;14.302;2023-12-28T12:56:22;4.00;;;2.35;;
76593;SDS011;65482;50.240;14.302;2023-12-28T12:58:49;4.32;;;2.60;;
76593;SDS011;65482;50.240;14.302;2023-12-28T13:01:14;4.90;;;2.60;;
76593;SDS011;65482;50.240;14.302;2023-12-28T13:03:42;6.43;;;2.30;;
76593;SDS011;65482;50.240;14.302;2023-12-28T13:06:07;3.60;;;2.38;;
76593;SDS011;65482;50.240;14.302;2023-12-28T13:08:33;4.15;;;2.30;;
76593;SDS011;65482;50.240;14.302;2023-12-28T13:10:59;46.95;;;4.55;;
76593;SDS011;65482;50.240;14.302;2023-12-28T13:13:25;7.22;;;2.50;;
76593;SDS011;65482;50.240;14.302;2023-12-28T13:15:50;19.65;;;3.00;;
76593;SDS011;65482;50.240;14.302;2023-12-28T13:18:16;5.13;;;2.38;;
76593;SDS011;65482;50.240;14.302;2023-12-28T13:20:41;14.43;;;3.13;;
76593;SDS011;65482;50.240;14.302;2023-12-28T13:23:08;5.82;;;3.08;;
76593;SDS011;65482;50.240;14.302;2023-12-28T13:25:34;4.13;;;2.13;;
76593;SDS011;65482;50.240;14.302;2023-12-28T13:28:00;4.80;;;2.38;;
76593;SDS011;65482;50.240;14.302;2023-12-28T13:30:25;6.78;;;2.67;;
76593;SDS011;65482;50.240;14.302;2023-12-28T13:32:54;7.32;;;2.60;;
76593;SDS011;65482;50.240;14.302;2023-12-28T13:35:21;6.40;;;2.70;;
76593;SDS011;65482;50.240;14.302;2023-12-28T13:37:47;4.82;;;2.60;;
76593;SDS011;65482;50.240;14.302;2023-12-28T13:40:13;5.10;;;2.40;;
76593;SDS011;65482;50.240;14.302;2023-12-28T13:42:38;3.72;;;2.15;;
76593;SDS011;65482;50.240;14.302;2023-12-28T13:45:04;4.07;;;2.15;;
76593;SDS011;65482;50.240;14.302;2023-12-28T13:47:30;14.27;;;2.72;;
76593;SDS011;65482;50.240;14.302;2023-12-28T13:49:56;4.43;;;2.30;;
76593;SDS011;65482;50.240;14.302;2023-12-28T13:52:22;4.10;;;2.10;;
76593;SDS011;65482;50.240;14.302;2023-12-28T13:54:47;5.65;;;2.63;;
76593;SDS011;65482;50.240;14.302;2023-12-28T13:57:13;4.97;;;2.15;;
76593;SDS011;65482;50.240;14.302;2023-12-28T13:59:38;5.25;;;2.38;;
76593;SDS011;65482;50.240;14.302;2023-12-28T14:02:05;10.65;;;2.75;;
76593;SDS011;65482;50.240;14.302;2023-12-28T14:04:30;7.05;;;2.92;;
76593;SDS011;65482;50.240;14.302;2023-12-28T14:06:57;6.78;;;2.60;;
76593;SDS011;65482;50.240;14.302;2023-12-28T14:09:22;11.10;;;2.78;;
76593;SDS011;65482;50.240;14.302;2023-12-28T14:11:48;5.80;;;2.47;;
76593;SDS011;65482;50.240;14.302;2023-12-28T14:14:14;5.30;;;3.17;;
76593;SDS011;65482;50.240;14.302;2023-12-28T14:16:40;7.85;;;2.92;;
76593;SDS011;65482;50.240;14.302;2023-12-28T14:19:05;5.88;;;2.35;;
76593;SDS011;65482;50.240;14.302;2023-12-28T14:21:37;5.25;;;2.60;;
76593;SDS011;65482;50.240;14.302;2023-12-28T14:24:03;9.32;;;2.63;;
76593;SDS011;65482;50.240;14.302;2023-12-28T14:26:34;4.38;;;2.58;;